sensor_id;sensor_type;location;lat;lon;timestamp;P1;durP1;ratioP1;P2;durP2;ratioP2
3718;SDS011;1875;52.492;6.860;2023-06-22T00:00:25;35.17;;;26.43;;
3718;SDS011;1875;52.492;6.860;2023-06-22T00:02:53;33.97;;;27.47;;
3718;SDS011;1875;52.492;6.860;2023-06-22T00:05:21;35.03;;;27.77;;
3718;SDS011;1875;52.492;6.860;2023-06-22T00:07:51;33.07;;;28.27;;
3718;SDS011;1875;52.492;6.860;2023-06-22T00:10:18;38.33;;;29.40;;
3718;SDS011;1875;52.492;6.860;2023-06-22T00:12:46;38.77;;;29.47;;
3718;SDS011;1875;52.492;6.860;2023-06-22T00:15:14;38.80;;;29.60;;
3718;SDS011;1875;52.492;6.860;2023-06-22T00:17:41;34.80;;;29.47;;
3718;SDS011;1875;52.492;6.860;2023-06-22T00:20:10;38.57;;;31.17;;
3718;SDS011;1875;52.492;6.860;2023-06-22T00:22:38;41.03;;;31.30;;
3718;SDS011;1875;52.492;6.860;2023-06-22T00:25:07;36.50;;;30.40;;
3718;SDS011;1875;52.492;6.860;2023-06-22T00:27:36;39.17;;;31.47;;
3718;SDS011;1875;52.492;6.860;2023-06-22T00:30:04;39.77;;;32.57;;
3718;SDS011;1875;52.492;6.860;2023-06-22T00:32:32;44.40;;;33.27;;
3718;SDS011;1875;52.492;6.860;2023-06-22T00:35:00;43.53;;;34.47;;
3718;SDS011;1875;52.492;6.860;2023-06-22T00:37:28;45.63;;;34.97;;
3718;SDS011;1875;52.492;6.860;2023-06-22T00:39:56;46.87;;;35.30;;
3718;SDS011;1875;52.492;6.860;2023-06-22T00:42:25;43.40;;;36.23;;
3718;SDS011;1875;52.492;6.860;2023-06-22T00:44:53;45.77;;;37.00;;
3718;SDS011;1875;52.492;6.860;2023-06-22T00:47:20;49.60;;;37.63;;
3718;SDS011;1875;52.492;6.860;2023-06-22T00:49:49;47.87;;;38.60;;
3718;SDS011;1875;52.492;6.860;2023-06-22T00:52:18;48.17;;;38.17;;
3718;SDS011;1875;52.492;6.860;2023-06-22T00:54:47;46.80;;;39.43;;
3718;SDS011;1875;52.492;6.860;2023-06-22T00:57:15;48.30;;;38.87;;
3718;SDS011;1875;52.492;6.860;2023-06-22T00:59:46;52.83;;;41.63;;
3718;SDS011;1875;52.492;6.860;2023-06-22T01:02:15;53.43;;;42.17;;
3718;SDS011;1875;52.492;6.860;2023-06-22T01:04:43;49.93;;;43.00;;
3718;SDS011;1875;52.492;6.860;2023-06-22T01:07:13;55.10;;;43.97;;
3718;SDS011;1875;52.492;6.860;2023-06-22T01:09:51;51.07;;;41.77;;
3718;SDS011;1875;52.492;6.860;2023-06-22T01:12:23;55.23;;;44.07;;
3718;SDS011;1875;52.492;6.860;2023-06-22T01:14:55;50.83;;;42.03;;
3718;SDS011;1875;52.492;6.860;2023-06-22T01:17:25;55.90;;;45.57;;
3718;SDS011;1875;52.492;6.860;2023-06-22T01:19:54;54.03;;;43.97;;
3718;SDS011;1875;52.492;6.860;2023-06-22T01:22:23;54.63;;;44.50;;
3718;SDS011;1875;52.492;6.860;2023-06-22T01:24:55;58.03;;;44.87;;
3718;SDS011;1875;52.492;6.860;2023-06-22T01:27:28;51.53;;;42.23;;
3718;SDS011;1875;52.492;6.860;2023-06-22T01:30:02;52.70;;;43.43;;
3718;SDS011;1875;52.492;6.860;2023-06-22T01:32:32;53.97;;;43.93;;
3718;SDS011;1875;52.492;6.860;2023-06-22T01:35:03;59.93;;;46.30;;
3718;SDS011;1875;52.492;6.860;2023-06-22T01:37:32;54.17;;;44.43;;
3718;SDS011;1875;52.492;6.860;2023-06-22T01:40:01;53.17;;;42.93;;
3718;SDS011;1875;52.492;6.860;2023-06-22T01:42:30;66.97;;;47.47;;
3718;SDS011;1875;52.492;6.860;2023-06-22T01:44:59;54.13;;;45.60;;
3718;SDS011;1875;52.492;6.860;2023-06-22T01:47:28;56.93;;;45.93;;
3718;SDS011;1875;52.492;6.860;2023-06-22T01:49:57;60.20;;;45.93;;
3718;SDS011;1875;52.492;6.860;2023-06-22T01:52:24;59.00;;;48.93;;
3718;SDS011;1875;52.492;6.860;2023-06-22T01:54:52;58.10;;;46.00;;
3718;SDS011;1875;52.492;6.860;2023-06-22T01:57:20;58.70;;;47.40;;
3718;SDS011;1875;52.492;6.860;2023-06-22T01:59:48;63.87;;;51.10;;
3718;SDS011;1875;52.492;6.860;2023-06-22T02:02:19;62.90;;;48.20;;
3718;SDS011;1875;52.492;6.860;2023-06-22T02:04:54;63.33;;;50.33;;
3718;SDS011;1875;52.492;6.860;2023-06-22T02:07:26;56.80;;;45.87;;
3718;SDS011;1875;52.492;6.860;2023-06-22T02:09:56;61.63;;;48.33;;
3718;SDS011;1875;52.492;6.860;2023-06-22T02:12:24;62.17;;;49.43;;
3718;SDS011;1875;52.492;6.860;2023-06-22T02:14:53;62.80;;;48.83;;
3718;SDS011;1875;52.492;6.860;2023-06-22T02:17:21;63.20;;;48.00;;
3718;SDS011;1875;52.492;6.860;2023-06-22T02:19:51;62.77;;;49.40;;
3718;SDS011;1875;52.492;6.860;2023-06-22T02:22:20;63.27;;;49.57;;
3718;SDS011;1875;52.492;6.860;2023-06-22T02:24:47;63.10;;;50.00;;
3718;SDS011;1875;52.492;6.860;2023-06-22T02:27:15;68.60;;;49.77;;
3718;SDS011;1875;52.492;6.860;2023-06-22T02:29:43;65.00;;;49.07;;
3718;SDS011;1875;52.492;6.860;2023-06-22T02:32:11;64.50;;;49.70;;
3718;SDS011;1875;52.492;6.860;2023-06-22T02:34:38;57.83;;;46.67;;
3718;SDS011;1875;52.492;6.860;2023-06-22T02:37:06;63.10;;;49.03;;
3718;SDS011;1875;52.492;6.860;2023-06-22T02:39:35;64.13;;;47.97;;
3718;SDS011;1875;52.492;6.860;2023-06-22T02:42:03;54.47;;;45.77;;
3718;SDS011;1875;52.492;6.860;2023-06-22T02:44:31;61.53;;;47.73;;
3718;SDS011;1875;52.492;6.860;2023-06-22T02:46:59;60.87;;;47.63;;
3718;SDS011;1875;52.492;6.860;2023-06-22T02:49:27;60.43;;;48.30;;
3718;SDS011;1875;52.492;6.860;2023-06-22T02:51:55;60.97;;;48.27;;
3718;SDS011;1875;52.492;6.860;2023-06-22T02:54:22;67.43;;;49.77;;
3718;SDS011;1875;52.492;6.860;2023-06-22T02:56:51;66.87;;;49.73;;
3718;SDS011;1875;52.492;6.860;2023-06-22T02:59:20;61.30;;;48.40;;
3718;SDS011;1875;52.492;6.860;2023-06-22T03:01:49;64.60;;;50.77;;
3718;SDS011;1875;52.492;6.860;2023-06-22T03:04:17;62.07;;;50.33;;
3718;SDS011;1875;52.492;6.860;2023-06-22T03:06:45;64.67;;;50.03;;
3718;SDS011;1875;52.492;6.860;2023-06-22T03:09:17;64.30;;;49.47;;
3718;SDS011;1875;52.492;6.860;2023-06-22T03:11:44;63.50;;;46.47;;
3718;SDS011;1875;52.492;6.860;2023-06-22T03:14:14;60.90;;;48.03;;
3718;SDS011;1875;52.492;6.860;2023-06-22T03:16:41;60.77;;;48.17;;
3718;SDS011;1875;52.492;6.860;2023-06-22T03:19:09;64.73;;;49.57;;
3718;SDS011;1875;52.492;6.860;2023-06-22T03:21:37;63.60;;;49.63;;
3718;SDS011;1875;52.492;6.860;2023-06-22T03:24:05;67.13;;;48.63;;
3718;SDS011;1875;52.492;6.860;2023-06-22T03:26:34;63.13;;;49.47;;
3718;SDS011;1875;52.492;6.860;2023-06-22T03:29:02;64.20;;;49.13;;
3718;SDS011;1875;52.492;6.860;2023-06-22T03:31:31;63.60;;;49.07;;
3718;SDS011;1875;52.492;6.860;2023-06-22T03:33:59;62.30;;;47.67;;
3718;SDS011;1875;52.492;6.860;2023-06-22T03:36:27;59.13;;;47.17;;
3718;SDS011;1875;52.492;6.860;2023-06-22T03:38:55;64.17;;;46.70;;
3718;SDS011;1875;52.492;6.860;2023-06-22T03:41:23;60.97;;;48.43;;
3718;SDS011;1875;52.492;6.860;2023-06-22T03:43:51;61.73;;;47.30;;
3718;SDS011;1875;52.492;6.860;2023-06-22T03:46:19;65.63;;;46.67;;
3718;SDS011;1875;52.492;6.860;2023-06-22T03:48:48;59.60;;;44.80;;
3718;SDS011;1875;52.492;6.860;2023-06-22T03:51:16;57.07;;;45.07;;
3718;SDS011;1875;52.492;6.860;2023-06-22T03:53:44;59.10;;;47.27;;
3718;SDS011;1875;52.492;6.860;2023-06-22T03:56:12;64.30;;;44.77;;
3718;SDS011;1875;52.492;6.860;2023-06-22T03:58:39;52.47;;;43.97;;
3718;SDS011;1875;52.492;6.860;2023-06-22T04:01:09;61.00;;;43.03;;
3718;SDS011;1875;52.492;6.860;2023-06-22T04:03:38;55.60;;;42.00;;
3718;SDS011;1875;52.492;6.860;2023-06-22T04:06:07;54.83;;;43.03;;
3718;SDS011;1875;52.492;6.860;2023-06-22T04:08:35;50.27;;;40.40;;
3718;SDS011;1875;52.492;6.860;2023-06-22T04:11:03;48.43;;;38.93;;
3718;SDS011;1875;52.492;6.860;2023-06-22T04:13:31;48.67;;;41.37;;
3718;SDS011;1875;52.492;6.860;2023-06-22T04:15:59;50.27;;;38.67;;
3718;SDS011;1875;52.492;6.860;2023-06-22T04:18:27;48.40;;;37.60;;
3718;SDS011;1875;52.492;6.860;2023-06-22T04:20:55;48.30;;;38.93;;
3718;SDS011;1875;52.492;6.860;2023-06-22T04:23:24;48.83;;;39.80;;
3718;SDS011;1875;52.492;6.860;2023-06-22T04:25:52;53.63;;;40.60;;
3718;SDS011;1875;52.492;6.860;2023-06-22T04:28:19;54.50;;;41.03;;
3718;SDS011;1875;52.492;6.860;2023-06-22T04:30:47;52.43;;;41.57;;
3718;SDS011;1875;52.492;6.860;2023-06-22T04:33:17;47.40;;;39.67;;
3718;SDS011;1875;52.492;6.860;2023-06-22T04:35:45;49.97;;;39.90;;
3718;SDS011;1875;52.492;6.860;2023-06-22T04:38:13;48.43;;;40.17;;
3718;SDS011;1875;52.492;6.860;2023-06-22T04:40:42;51.83;;;39.00;;
3718;SDS011;1875;52.492;6.860;2023-06-22T04:43:10;49.93;;;40.33;;
3718;SDS011;1875;52.492;6.860;2023-06-22T04:45:37;47.30;;;38.57;;
3718;SDS011;1875;52.492;6.860;2023-06-22T04:48:05;45.13;;;37.03;;
3718;SDS011;1875;52.492;6.860;2023-06-22T04:50:35;45.40;;;36.17;;
3718;SDS011;1875;52.492;6.860;2023-06-22T04:53:03;42.83;;;37.27;;
3718;SDS011;1875;52.492;6.860;2023-06-22T04:55:31;48.10;;;37.20;;
3718;SDS011;1875;52.492;6.860;2023-06-22T04:58:01;43.90;;;35.67;;
3718;SDS011;1875;52.492;6.860;2023-06-22T05:00:31;36.80;;;32.67;;
3718;SDS011;1875;52.492;6.860;2023-06-22T05:03:02;39.80;;;32.40;;
3718;SDS011;1875;52.492;6.860;2023-06-22T05:05:45;38.30;;;29.87;;
3718;SDS011;1875;52.492;6.860;2023-06-22T05:08:13;37.67;;;28.40;;
3718;SDS011;1875;52.492;6.860;2023-06-22T05:10:41;31.13;;;27.43;;
3718;SDS011;1875;52.492;6.860;2023-06-22T05:13:30;30.80;;;26.07;;
3718;SDS011;1875;52.492;6.860;2023-06-22T05:15:58;29.87;;;24.63;;
3718;SDS011;1875;52.492;6.860;2023-06-22T05:18:29;26.80;;;23.90;;
3718;SDS011;1875;52.492;6.860;2023-06-22T05:20:57;28.80;;;24.50;;
3718;SDS011;1875;52.492;6.860;2023-06-22T05:23:26;24.67;;;21.47;;
3718;SDS011;1875;52.492;6.860;2023-06-22T05:25:53;27.10;;;22.10;;
3718;SDS011;1875;52.492;6.860;2023-06-22T05:28:24;24.57;;;19.83;;
3718;SDS011;1875;52.492;6.860;2023-06-22T05:30:53;22.93;;;20.53;;
3718;SDS011;1875;52.492;6.860;2023-06-22T05:33:21;24.83;;;20.30;;
3718;SDS011;1875;52.492;6.860;2023-06-22T05:35:48;24.10;;;19.63;;
3718;SDS011;1875;52.492;6.860;2023-06-22T05:38:16;22.00;;;19.60;;
3718;SDS011;1875;52.492;6.860;2023-06-22T05:40:44;23.93;;;18.77;;
3718;SDS011;1875;52.492;6.860;2023-06-22T05:43:12;22.00;;;18.33;;
3718;SDS011;1875;52.492;6.860;2023-06-22T05:45:39;19.30;;;15.67;;
3718;SDS011;1875;52.492;6.860;2023-06-22T05:48:08;20.57;;;16.53;;
3718;SDS011;1875;52.492;6.860;2023-06-22T05:50:36;18.90;;;16.90;;
3718;SDS011;1875;52.492;6.860;2023-06-22T05:53:04;20.40;;;16.93;;
3718;SDS011;1875;52.492;6.860;2023-06-22T05:55:33;18.80;;;16.77;;
3718;SDS011;1875;52.492;6.860;2023-06-22T05:58:01;18.10;;;16.03;;
3718;SDS011;1875;52.492;6.860;2023-06-22T06:00:29;19.40;;;16.17;;
3718;SDS011;1875;52.492;6.860;2023-06-22T06:02:57;18.20;;;15.97;;
3718;SDS011;1875;52.492;6.860;2023-06-22T06:05:31;18.50;;;14.77;;
3718;SDS011;1875;52.492;6.860;2023-06-22T06:08:00;15.97;;;14.27;;
3718;SDS011;1875;52.492;6.860;2023-06-22T06:10:28;16.73;;;14.37;;
3718;SDS011;1875;52.492;6.860;2023-06-22T06:12:57;15.53;;;13.70;;
3718;SDS011;1875;52.492;6.860;2023-06-22T06:15:25;17.50;;;14.00;;
3718;SDS011;1875;52.492;6.860;2023-06-22T06:17:53;15.13;;;13.53;;
3718;SDS011;1875;52.492;6.860;2023-06-22T06:20:21;15.80;;;13.43;;
3718;SDS011;1875;52.492;6.860;2023-06-22T06:22:51;15.60;;;13.00;;
3718;SDS011;1875;52.492;6.860;2023-06-22T06:25:19;14.20;;;12.77;;
3718;SDS011;1875;52.492;6.860;2023-06-22T06:27:49;15.77;;;12.83;;
3718;SDS011;1875;52.492;6.860;2023-06-22T06:30:17;14.33;;;12.10;;
3718;SDS011;1875;52.492;6.860;2023-06-22T06:32:46;14.63;;;12.60;;
3718;SDS011;1875;52.492;6.860;2023-06-22T06:35:14;13.83;;;11.47;;
3718;SDS011;1875;52.492;6.860;2023-06-22T06:37:43;16.70;;;13.13;;
3718;SDS011;1875;52.492;6.860;2023-06-22T06:40:13;15.00;;;12.23;;
3718;SDS011;1875;52.492;6.860;2023-06-22T06:42:42;12.10;;;10.77;;
3718;SDS011;1875;52.492;6.860;2023-06-22T06:45:11;14.83;;;12.23;;
3718;SDS011;1875;52.492;6.860;2023-06-22T06:47:39;14.37;;;11.50;;
3718;SDS011;1875;52.492;6.860;2023-06-22T06:50:08;13.67;;;11.67;;
3718;SDS011;1875;52.492;6.860;2023-06-22T06:52:36;13.07;;;10.70;;
3718;SDS011;1875;52.492;6.860;2023-06-22T06:55:05;15.50;;;11.77;;
3718;SDS011;1875;52.492;6.860;2023-06-22T06:57:38;14.43;;;11.43;;
3718;SDS011;1875;52.492;6.860;2023-06-22T07:00:07;13.87;;;11.37;;
3718;SDS011;1875;52.492;6.860;2023-06-22T07:02:38;13.53;;;11.20;;
3718;SDS011;1875;52.492;6.860;2023-06-22T07:05:07;15.67;;;10.33;;
3718;SDS011;1875;52.492;6.860;2023-06-22T07:07:36;11.77;;;10.30;;
3718;SDS011;1875;52.492;6.860;2023-06-22T07:10:04;14.73;;;10.80;;
3718;SDS011;1875;52.492;6.860;2023-06-22T07:12:32;12.67;;;10.27;;
3718;SDS011;1875;52.492;6.860;2023-06-22T07:15:02;13.47;;;10.37;;
3718;SDS011;1875;52.492;6.860;2023-06-22T07:17:30;15.00;;;10.17;;
3718;SDS011;1875;52.492;6.860;2023-06-22T07:19:58;13.60;;;11.20;;
3718;SDS011;1875;52.492;6.860;2023-06-22T07:22:26;12.40;;;11.07;;
3718;SDS011;1875;52.492;6.860;2023-06-22T07:24:54;13.83;;;12.20;;
3718;SDS011;1875;52.492;6.860;2023-06-22T07:27:22;14.20;;;11.27;;
3718;SDS011;1875;52.492;6.860;2023-06-22T07:29:50;13.47;;;10.77;;
3718;SDS011;1875;52.492;6.860;2023-06-22T07:32:19;14.07;;;10.80;;
3718;SDS011;1875;52.492;6.860;2023-06-22T07:34:46;13.30;;;10.13;;
3718;SDS011;1875;52.492;6.860;2023-06-22T07:37:14;12.60;;;9.10;;
3718;SDS011;1875;52.492;6.860;2023-06-22T07:39:42;13.47;;;9.07;;
3718;SDS011;1875;52.492;6.860;2023-06-22T07:42:10;13.83;;;9.13;;
3718;SDS011;1875;52.492;6.860;2023-06-22T07:44:37;10.37;;;8.90;;
3718;SDS011;1875;52.492;6.860;2023-06-22T07:47:05;15.47;;;8.50;;
3718;SDS011;1875;52.492;6.860;2023-06-22T07:49:35;14.27;;;8.90;;
3718;SDS011;1875;52.492;6.860;2023-06-22T07:52:03;15.70;;;9.33;;
3718;SDS011;1875;52.492;6.860;2023-06-22T07:54:32;10.90;;;8.07;;
3718;SDS011;1875;52.492;6.860;2023-06-22T07:57:00;11.33;;;8.60;;
3718;SDS011;1875;52.492;6.860;2023-06-22T07:59:27;10.43;;;8.10;;
3718;SDS011;1875;52.492;6.860;2023-06-22T08:01:55;12.30;;;8.47;;
3718;SDS011;1875;52.492;6.860;2023-06-22T08:04:23;14.00;;;8.27;;
3718;SDS011;1875;52.492;6.860;2023-06-22T08:06:52;14.80;;;7.70;;
3718;SDS011;1875;52.492;6.860;2023-06-22T08:09:20;11.23;;;8.40;;
3718;SDS011;1875;52.492;6.860;2023-06-22T08:11:48;11.30;;;8.57;;
3718;SDS011;1875;52.492;6.860;2023-06-22T08:14:16;9.70;;;7.70;;
3718;SDS011;1875;52.492;6.860;2023-06-22T08:16:43;10.27;;;8.00;;
3718;SDS011;1875;52.492;6.860;2023-06-22T08:19:12;12.77;;;8.63;;
3718;SDS011;1875;52.492;6.860;2023-06-22T08:21:39;11.20;;;9.27;;
3718;SDS011;1875;52.492;6.860;2023-06-22T08:24:09;13.23;;;10.00;;
3718;SDS011;1875;52.492;6.860;2023-06-22T08:26:36;12.60;;;8.60;;
3718;SDS011;1875;52.492;6.860;2023-06-22T08:29:04;10.20;;;8.50;;
3718;SDS011;1875;52.492;6.860;2023-06-22T08:31:32;12.73;;;8.47;;
3718;SDS011;1875;52.492;6.860;2023-06-22T08:34:01;14.27;;;8.43;;
3718;SDS011;1875;52.492;6.860;2023-06-22T08:36:28;10.47;;;8.43;;
3718;SDS011;1875;52.492;6.860;2023-06-22T08:38:59;14.50;;;8.60;;
3718;SDS011;1875;52.492;6.860;2023-06-22T08:41:29;13.13;;;8.47;;
3718;SDS011;1875;52.492;6.860;2023-06-22T08:43:57;16.63;;;8.70;;
3718;SDS011;1875;52.492;6.860;2023-06-22T08:46:24;10.90;;;9.60;;
3718;SDS011;1875;52.492;6.860;2023-06-22T08:48:57;13.43;;;8.53;;
3718;SDS011;1875;52.492;6.860;2023-06-22T08:51:25;12.07;;;9.30;;
3718;SDS011;1875;52.492;6.860;2023-06-22T08:53:53;12.17;;;9.90;;
3718;SDS011;1875;52.492;6.860;2023-06-22T08:56:20;11.60;;;9.93;;
3718;SDS011;1875;52.492;6.860;2023-06-22T08:58:49;9.60;;;8.50;;
3718;SDS011;1875;52.492;6.860;2023-06-22T09:01:17;13.87;;;9.37;;
3718;SDS011;1875;52.492;6.860;2023-06-22T09:03:45;10.23;;;9.10;;
3718;SDS011;1875;52.492;6.860;2023-06-22T09:06:20;10.13;;;8.80;;
3718;SDS011;1875;52.492;6.860;2023-06-22T09:08:48;11.07;;;8.63;;
3718;SDS011;1875;52.492;6.860;2023-06-22T09:11:16;11.73;;;9.53;;
3718;SDS011;1875;52.492;6.860;2023-06-22T09:13:44;14.53;;;10.33;;
3718;SDS011;1875;52.492;6.860;2023-06-22T09:16:14;15.17;;;10.10;;
3718;SDS011;1875;52.492;6.860;2023-06-22T09:18:41;12.67;;;8.57;;
3718;SDS011;1875;52.492;6.860;2023-06-22T09:21:09;12.17;;;9.87;;
3718;SDS011;1875;52.492;6.860;2023-06-22T09:23:37;12.73;;;9.93;;
3718;SDS011;1875;52.492;6.860;2023-06-22T09:26:05;12.23;;;9.03;;
3718;SDS011;1875;52.492;6.860;2023-06-22T09:28:33;15.10;;;8.93;;
3718;SDS011;1875;52.492;6.860;2023-06-22T09:31:01;11.07;;;9.73;;
3718;SDS011;1875;52.492;6.860;2023-06-22T09:33:30;16.20;;;10.03;;
3718;SDS011;1875;52.492;6.860;2023-06-22T09:35:59;12.67;;;10.30;;
3718;SDS011;1875;52.492;6.860;2023-06-22T09:38:26;13.83;;;9.73;;
3718;SDS011;1875;52.492;6.860;2023-06-22T09:40:54;13.33;;;10.10;;
3718;SDS011;1875;52.492;6.860;2023-06-22T09:43:22;13.60;;;9.93;;
3718;SDS011;1875;52.492;6.860;2023-06-22T09:45:50;13.30;;;10.87;;
3718;SDS011;1875;52.492;6.860;2023-06-22T09:48:17;14.47;;;9.87;;
3718;SDS011;1875;52.492;6.860;2023-06-22T09:50:46;14.03;;;10.47;;
3718;SDS011;1875;52.492;6.860;2023-06-22T09:53:14;18.73;;;9.90;;
3718;SDS011;1875;52.492;6.860;2023-06-22T09:55:42;10.50;;;9.40;;
3718;SDS011;1875;52.492;6.860;2023-06-22T09:58:10;11.67;;;9.53;;
3718;SDS011;1875;52.492;6.860;2023-06-22T10:00:37;12.57;;;9.87;;
3718;SDS011;1875;52.492;6.860;2023-06-22T10:03:07;14.53;;;9.30;;
3718;SDS011;1875;52.492;6.860;2023-06-22T10:05:35;13.50;;;10.47;;
3718;SDS011;1875;52.492;6.860;2023-06-22T10:08:05;14.03;;;10.73;;
3718;SDS011;1875;52.492;6.860;2023-06-22T10:10:36;14.57;;;10.07;;
3718;SDS011;1875;52.492;6.860;2023-06-22T10:13:07;12.30;;;10.00;;
3718;SDS011;1875;52.492;6.860;2023-06-22T10:15:36;10.77;;;8.87;;
3718;SDS011;1875;52.492;6.860;2023-06-22T10:18:04;12.00;;;9.57;;
3718;SDS011;1875;52.492;6.860;2023-06-22T10:20:32;12.13;;;10.07;;
3718;SDS011;1875;52.492;6.860;2023-06-22T10:23:00;12.27;;;10.43;;
3718;SDS011;1875;52.492;6.860;2023-06-22T10:25:29;12.87;;;10.10;;
3718;SDS011;1875;52.492;6.860;2023-06-22T10:27:57;11.50;;;9.90;;
3718;SDS011;1875;52.492;6.860;2023-06-22T10:30:27;11.83;;;9.60;;
3718;SDS011;1875;52.492;6.860;2023-06-22T10:32:55;13.57;;;9.63;;
3718;SDS011;1875;52.492;6.860;2023-06-22T10:35:23;12.17;;;10.13;;
3718;SDS011;1875;52.492;6.860;2023-06-22T10:37:52;13.90;;;10.63;;
3718;SDS011;1875;52.492;6.860;2023-06-22T10:40:20;16.03;;;10.83;;
3718;SDS011;1875;52.492;6.860;2023-06-22T10:42:49;11.23;;;9.00;;
3718;SDS011;1875;52.492;6.860;2023-06-22T10:45:17;13.93;;;10.40;;
3718;SDS011;1875;52.492;6.860;2023-06-22T10:47:45;13.87;;;10.53;;
3718;SDS011;1875;52.492;6.860;2023-06-22T10:50:13;14.20;;;10.10;;
3718;SDS011;1875;52.492;6.860;2023-06-22T10:52:41;11.33;;;10.03;;
3718;SDS011;1875;52.492;6.860;2023-06-22T10:55:09;10.97;;;9.77;;
3718;SDS011;1875;52.492;6.860;2023-06-22T10:57:37;10.50;;;9.27;;
3718;SDS011;1875;52.492;6.860;2023-06-22T11:00:07;15.53;;;10.33;;
3718;SDS011;1875;52.492;6.860;2023-06-22T11:02:37;15.30;;;9.97;;
3718;SDS011;1875;52.492;6.860;2023-06-22T11:05:05;15.03;;;9.83;;
3718;SDS011;1875;52.492;6.860;2023-06-22T11:07:34;12.57;;;9.50;;
3718;SDS011;1875;52.492;6.860;2023-06-22T11:10:02;14.67;;;9.83;;
3718;SDS011;1875;52.492;6.860;2023-06-22T11:12:30;12.37;;;9.87;;
3718;SDS011;1875;52.492;6.860;2023-06-22T11:14:58;12.80;;;9.53;;
3718;SDS011;1875;52.492;6.860;2023-06-22T11:17:27;14.47;;;10.40;;
3718;SDS011;1875;52.492;6.860;2023-06-22T11:19:55;12.50;;;10.23;;
3718;SDS011;1875;52.492;6.860;2023-06-22T11:22:23;15.67;;;9.63;;
3718;SDS011;1875;52.492;6.860;2023-06-22T11:24:50;14.77;;;9.63;;
3718;SDS011;1875;52.492;6.860;2023-06-22T11:27:18;16.20;;;9.83;;
3718;SDS011;1875;52.492;6.860;2023-06-22T11:29:46;10.67;;;9.43;;
3718;SDS011;1875;52.492;6.860;2023-06-22T11:32:13;12.23;;;9.40;;
3718;SDS011;1875;52.492;6.860;2023-06-22T11:34:43;10.83;;;8.73;;
3718;SDS011;1875;52.492;6.860;2023-06-22T11:37:10;10.93;;;8.63;;
3718;SDS011;1875;52.492;6.860;2023-06-22T11:39:38;11.07;;;8.40;;
3718;SDS011;1875;52.492;6.860;2023-06-22T11:42:13;12.07;;;9.00;;
3718;SDS011;1875;52.492;6.860;2023-06-22T11:44:41;13.60;;;9.33;;
3718;SDS011;1875;52.492;6.860;2023-06-22T11:47:09;12.93;;;8.83;;
3718;SDS011;1875;52.492;6.860;2023-06-22T11:49:37;11.20;;;8.10;;
3718;SDS011;1875;52.492;6.860;2023-06-22T11:52:07;8.93;;;7.63;;
3718;SDS011;1875;52.492;6.860;2023-06-22T11:54:35;10.40;;;8.00;;
3718;SDS011;1875;52.492;6.860;2023-06-22T11:57:04;14.37;;;8.73;;
3718;SDS011;1875;52.492;6.860;2023-06-22T11:59:31;10.67;;;8.17;;
3718;SDS011;1875;52.492;6.860;2023-06-22T12:01:59;9.33;;;8.37;;
3718;SDS011;1875;52.492;6.860;2023-06-22T12:04:27;11.83;;;9.00;;
3718;SDS011;1875;52.492;6.860;2023-06-22T12:06:55;12.77;;;9.17;;
3718;SDS011;1875;52.492;6.860;2023-06-22T12:09:24;13.27;;;9.20;;
3718;SDS011;1875;52.492;6.860;2023-06-22T12:11:52;10.70;;;8.00;;
3718;SDS011;1875;52.492;6.860;2023-06-22T12:14:19;8.73;;;7.90;;
3718;SDS011;1875;52.492;6.860;2023-06-22T12:16:47;10.63;;;7.90;;
3718;SDS011;1875;52.492;6.860;2023-06-22T12:19:15;15.33;;;9.23;;
3718;SDS011;1875;52.492;6.860;2023-06-22T12:21:42;12.20;;;9.97;;
3718;SDS011;1875;52.492;6.860;2023-06-22T12:24:12;11.23;;;9.37;;
3718;SDS011;1875;52.492;6.860;2023-06-22T12:26:41;10.17;;;8.07;;
3718;SDS011;1875;52.492;6.860;2023-06-22T12:29:09;12.20;;;9.33;;
3718;SDS011;1875;52.492;6.860;2023-06-22T12:31:37;12.13;;;10.23;;
3718;SDS011;1875;52.492;6.860;2023-06-22T12:34:06;12.63;;;9.33;;
3718;SDS011;1875;52.492;6.860;2023-06-22T12:36:33;11.37;;;9.27;;
3718;SDS011;1875;52.492;6.860;2023-06-22T12:39:01;11.57;;;9.37;;
3718;SDS011;1875;52.492;6.860;2023-06-22T12:41:29;13.10;;;9.63;;
3718;SDS011;1875;52.492;6.860;2023-06-22T12:43:58;10.70;;;8.60;;
3718;SDS011;1875;52.492;6.860;2023-06-22T12:46:26;13.13;;;9.00;;
3718;SDS011;1875;52.492;6.860;2023-06-22T12:48:54;14.50;;;9.33;;
3718;SDS011;1875;52.492;6.860;2023-06-22T12:51:21;11.33;;;9.50;;
3718;SDS011;1875;52.492;6.860;2023-06-22T12:53:49;12.57;;;9.47;;
3718;SDS011;1875;52.492;6.860;2023-06-22T12:56:17;15.60;;;10.13;;
3718;SDS011;1875;52.492;6.860;2023-06-22T12:58:45;13.73;;;10.20;;
3718;SDS011;1875;52.492;6.860;2023-06-22T13:01:14;11.23;;;9.03;;
3718;SDS011;1875;52.492;6.860;2023-06-22T13:03:44;15.57;;;10.30;;
3718;SDS011;1875;52.492;6.860;2023-06-22T13:06:12;16.80;;;9.83;;
3718;SDS011;1875;52.492;6.860;2023-06-22T13:08:40;16.37;;;9.83;;
3718;SDS011;1875;52.492;6.860;2023-06-22T13:11:10;13.87;;;9.80;;
3718;SDS011;1875;52.492;6.860;2023-06-22T13:13:38;12.03;;;10.00;;
3718;SDS011;1875;52.492;6.860;2023-06-22T13:16:06;14.03;;;10.30;;
3718;SDS011;1875;52.492;6.860;2023-06-22T13:18:35;16.33;;;10.43;;
3718;SDS011;1875;52.492;6.860;2023-06-22T13:21:03;10.97;;;9.60;;
3718;SDS011;1875;52.492;6.860;2023-06-22T13:23:31;13.60;;;11.37;;
3718;SDS011;1875;52.492;6.860;2023-06-22T13:26:00;14.17;;;11.97;;
3718;SDS011;1875;52.492;6.860;2023-06-22T13:28:29;18.63;;;12.10;;
3718;SDS011;1875;52.492;6.860;2023-06-22T13:30:57;14.03;;;12.50;;
3718;SDS011;1875;52.492;6.860;2023-06-22T13:33:25;14.70;;;12.33;;
3718;SDS011;1875;52.492;6.860;2023-06-22T13:35:54;17.33;;;13.80;;
3718;SDS011;1875;52.492;6.860;2023-06-22T13:38:21;15.17;;;12.87;;
3718;SDS011;1875;52.492;6.860;2023-06-22T13:40:49;17.33;;;13.50;;
3718;SDS011;1875;52.492;6.860;2023-06-22T13:43:17;17.77;;;13.40;;
3718;SDS011;1875;52.492;6.860;2023-06-22T13:45:45;17.87;;;13.50;;
3718;SDS011;1875;52.492;6.860;2023-06-22T13:48:13;15.53;;;13.93;;
3718;SDS011;1875;52.492;6.860;2023-06-22T13:50:40;17.13;;;14.03;;
3718;SDS011;1875;52.492;6.860;2023-06-22T13:53:09;19.13;;;14.83;;
3718;SDS011;1875;52.492;6.860;2023-06-22T13:55:37;17.57;;;15.67;;
3718;SDS011;1875;52.492;6.860;2023-06-22T13:58:05;16.93;;;15.13;;
3718;SDS011;1875;52.492;6.860;2023-06-22T14:00:33;16.60;;;14.90;;
3718;SDS011;1875;52.492;6.860;2023-06-22T14:03:01;18.30;;;14.90;;
3718;SDS011;1875;52.492;6.860;2023-06-22T14:05:28;15.97;;;14.37;;
3718;SDS011;1875;52.492;6.860;2023-06-22T14:07:56;19.70;;;15.33;;
3718;SDS011;1875;52.492;6.860;2023-06-22T14:10:26;19.67;;;15.70;;
3718;SDS011;1875;52.492;6.860;2023-06-22T14:12:54;20.10;;;16.63;;
3718;SDS011;1875;52.492;6.860;2023-06-22T14:15:22;20.23;;;16.50;;
3718;SDS011;1875;52.492;6.860;2023-06-22T14:17:49;20.77;;;16.67;;
3718;SDS011;1875;52.492;6.860;2023-06-22T14:20:17;21.20;;;18.43;;
3718;SDS011;1875;52.492;6.860;2023-06-22T14:22:45;22.90;;;18.07;;
3718;SDS011;1875;52.492;6.860;2023-06-22T14:25:13;21.23;;;18.67;;
3718;SDS011;1875;52.492;6.860;2023-06-22T14:27:42;22.50;;;18.83;;
3718;SDS011;1875;52.492;6.860;2023-06-22T14:30:10;24.93;;;19.57;;
3718;SDS011;1875;52.492;6.860;2023-06-22T14:32:38;23.57;;;19.43;;
3718;SDS011;1875;52.492;6.860;2023-06-22T14:35:06;23.93;;;20.27;;
3718;SDS011;1875;52.492;6.860;2023-06-22T14:37:34;22.30;;;19.90;;
3718;SDS011;1875;52.492;6.860;2023-06-22T14:40:02;25.77;;;20.30;;
3718;SDS011;1875;52.492;6.860;2023-06-22T14:42:30;23.10;;;20.67;;
3718;SDS011;1875;52.492;6.860;2023-06-22T14:45:00;22.10;;;19.80;;
3718;SDS011;1875;52.492;6.860;2023-06-22T14:47:27;22.67;;;19.40;;
3718;SDS011;1875;52.492;6.860;2023-06-22T14:49:55;22.13;;;18.53;;
3718;SDS011;1875;52.492;6.860;2023-06-22T14:52:23;21.63;;;19.33;;
3718;SDS011;1875;52.492;6.860;2023-06-22T14:54:51;24.10;;;21.50;;
3718;SDS011;1875;52.492;6.860;2023-06-22T14:57:19;20.53;;;18.33;;
3718;SDS011;1875;52.492;6.860;2023-06-22T14:59:49;20.60;;;18.37;;